Time;durP1;ratioP1;P1;durP2;ratioP2;P2;SDS_P1;SDS_P2;PMS_P1;PMS_P2;Temp;Humidity;BMP_temperature;BMP_pressure;BME280_temperature;BME280_humidity;BME280_pressure;Samples;Min_cycle;Max_cycle;Signal;HPM_P1;HPM_P2
2022/02/11 00:00:51;;;;;;;24.52;14.32;;;;;;;5.08;100.00;100806.56;6225327;23;20040;-92
2022/02/11 00:06:11;;;;;;;17.75;10.27;;;;;;;5.08;100.00;100821.44;6242788;23;20077;-94
2022/02/11 00:08:36;;;;;;;;;;;;;;;5.13;100.00;100840.63;6243791;23;20023;-92
2022/02/11 00:11:04;;;;;;;12.07;7.32;;;;;;;5.04;100.00;100846.88;6245427;23;20359;-91
2022/02/11 00:13:32;;;;;;;12.13;7.05;;;;;;;4.89;100.00;100836.63;6245763;23;20012;-93
2022/02/11 00:16:01;;;;;;;8.63;6.07;;;;;;;4.81;100.00;100822.78;6246117;23;20024;-92
2022/02/11 00:18:31;;;;;;;9.35;6.20;;;;;;;4.66;100.00;100809.94;6245365;23;20023;-92
2022/02/11 00:21:01;;;;;;;9.25;5.57;;;;;;;4.77;100.00;100823.72;6246412;23;20070;-93
2022/02/11 00:23:35;;;;;;;6.50;4.47;;;;;;;4.82;100.00;100824.53;6245559;23;20051;-92
2022/02/11 00:26:03;;;;;;;7.22;3.90;;;;;;;4.71;100.00;100808.09;6245774;23;20020;-92
2022/02/11 00:34:08;;;;;;;5.38;3.33;;;;;;;4.69;100.00;100841.38;6248110;23;20080;-92
2022/02/11 00:36:55;;;;;;;4.28;2.70;;;;;;;4.52;100.00;100824.13;6246712;23;20024;-93
2022/02/11 00:40:15;;;;;;;5.30;3.05;;;;;;;4.49;100.00;100821.53;6246492;23;20016;-94
2022/02/11 01:02:11;;;;;;;0.63;0.63;;;;;;;4.43;100.00;100881.94;6245611;23;20632;-93
2022/02/11 01:04:16;;;;;;;0.90;0.80;;;;;;;4.44;100.00;100894.16;6253936;23;20200;-95
2022/02/11 01:06:44;;;;;;;0.50;0.50;;;;;;;4.43;100.00;100907.28;6260855;23;20054;-95
2022/02/11 01:09:13;;;;;;;0.70;0.60;;;;;;;4.20;100.00;100884.03;6234323;23;20024;-95
2022/02/11 01:14:14;;;;;;;0.95;0.90;;;;;;;4.10;100.00;100890.25;6253349;23;20028;-93
2022/02/11 01:16:47;;;;;;;0.85;0.80;;;;;;;4.05;100.00;100892.09;6247681;23;20038;-92
2022/02/11 01:19:25;;;;;;;1.02;0.90;;;;;;;4.09;100.00;100902.50;6217925;23;20460;-93
2022/02/11 01:22:12;;;;;;;0.70;0.70;;;;;;;4.12;100.00;100906.81;6244099;23;20067;-93
2022/02/11 01:27:37;;;;;;;0.60;0.60;;;;;;;4.14;100.00;100920.78;6245032;23;20012;-92
2022/02/11 01:38:24;;;;;;;1.05;0.73;;;;;;;4.05;100.00;100952.34;6246872;23;20026;-92
2022/02/11 01:49:40;;;;;;;0.93;0.73;;;;;;;3.91;100.00;100960.38;6245571;23;20024;-96
2022/02/11 01:58:21;;;;;;;0.77;0.60;;;;;;;3.70;100.00;100934.41;6244633;23;20016;-92
2022/02/11 02:03:28;;;;;;;0.68;0.60;;;;;;;3.73;99.96;100955.31;6244462;23;20020;-93
2022/02/11 02:06:16;;;;;;;1.10;0.80;;;;;;;3.73;100.00;100956.19;6243797;23;20051;-91
2022/02/11 02:09:05;;;;;;;0.82;0.75;;;;;;;3.72;100.00;100951.84;6241551;23;20020;-92
2022/02/11 02:17:38;;;;;;;1.75;0.95;;;;;;;3.63;99.90;100949.28;6245041;23;20070;-94
2022/02/11 02:58:31;;;;;;;1.20;1.10;;;;;;;3.47;98.68;100952.94;6248913;23;20024;-92
2022/02/11 03:01:31;;;;;;;1.27;1.00;;;;;;;3.79;97.96;101003.25;6242985;23;20016;-94
2022/02/11 03:54:02;;;;;;;2.33;2.08;;;;;;;2.84;100.00;101057.19;6255578;23;20027;-92
2022/02/11 04:21:52;;;;;;;9.60;5.63;;;;;;;2.52;100.00;101062.56;6248004;23;20048;-92
2022/02/11 04:56:49;;;;;;;12.85;7.15;;;;;;;2.37;100.00;101120.09;6253694;23;20031;-92
2022/02/11 05:25:58;;;;;;;15.75;8.27;;;;;;;2.41;100.00;101167.16;6251277;23;20450;-92
2022/02/11 05:28:25;;;;;;;13.98;7.68;;;;;;;2.27;100.00;101150.63;6250562;23;20436;-93
2022/02/11 05:30:55;;;;;;;13.15;6.65;;;;;;;2.28;100.00;101146.25;6251538;23;20016;-92
2022/02/11 05:33:47;;;;;;;16.33;7.18;;;;;;;2.45;100.00;101176.75;6252066;23;20016;-92
2022/02/11 05:36:16;;;;;;;14.73;7.72;;;;;;;2.22;100.00;101147.13;6251916;23;20024;-92
2022/02/11 05:38:43;;;;;;;14.98;6.90;;;;;;;2.19;100.00;101151.50;6228098;23;20020;-92
2022/02/11 05:41:33;;;;;;;21.67;8.38;;;;;;;2.29;100.00;101164.56;6251613;23;20016;-92
2022/02/11 05:44:00;;;;;;;9.73;5.03;;;;;;;2.16;100.00;101151.50;6249995;23;20099;-92
2022/02/11 05:46:39;;;;;;;15.35;7.28;;;;;;;2.00;100.00;101125.41;6249200;23;20060;-94
2022/02/11 05:49:35;;;;;;;15.98;7.88;;;;;;;2.09;100.00;101154.13;6238756;23;20105;-93
2022/02/11 05:52:54;;;;;;;12.57;6.93;;;;;;;2.32;100.00;101193.31;6249560;23;20027;-93
2022/02/11 05:55:49;;;;;;;14.70;7.38;;;;;;;2.11;100.00;101164.56;6250306;23;20027;-92
2022/02/11 05:58:16;;;;;;;;;;;;;;;2.29;100.00;101193.31;6249577;23;20016;-93
2022/02/11 06:00:43;;;;;;;15.27;7.95;;;;;;;2.11;100.00;101165.44;6249576;23;19916;-92
2022/02/11 06:03:10;;;;;;;13.00;7.22;;;;;;;1.94;100.00;101137.56;6249590;23;20091;-92
2022/02/11 06:05:39;;;;;;;16.50;8.68;;;;;;;2.15;100.00;101176.78;6247697;23;20095;-91
2022/02/11 06:08:07;;;;;;;11.77;7.25;;;;;;;1.89;100.00;101148.00;6245423;23;20099;-92
2022/02/11 06:10:33;;;;;;;15.30;8.25;;;;;;;2.04;100.00;101178.53;6225195;23;20016;-92
2022/02/11 06:13:02;;;;;;;13.40;7.82;;;;;;;2.19;100.00;101201.16;6250865;23;20019;-92
2022/02/11 06:15:30;;;;;;;12.02;8.10;;;;;;;1.81;100.00;101157.59;6249706;23;20050;-93
2022/02/11 06:17:58;;;;;;;13.55;8.10;;;;;;;1.74;100.00;101148.00;6249649;23;20016;-91
2022/02/11 06:20:29;;;;;;;11.57;7.75;;;;;;;1.85;100.00;101180.25;6247522;23;20360;-93
2022/02/11 06:22:57;;;;;;;18.80;8.63;;;;;;;1.70;100.00;101160.22;6251624;23;20339;-91
2022/02/11 06:25:24;;;;;;;15.57;8.43;;;;;;;1.89;100.00;101195.03;6251189;23;20027;-91
2022/02/11 06:28:01;;;;;;;14.13;7.72;;;;;;;1.86;100.00;101199.41;6248228;23;20016;-90
2022/02/11 06:30:30;;;;;;;14.43;7.72;;;;;;;1.61;100.00;101154.94;6247109;23;20089;-89
2022/02/11 06:33:00;;;;;;;12.07;7.35;;;;;;;1.67;100.00;101161.94;6245162;23;20095;-91
2022/02/11 06:35:31;;;;;;;16.80;8.02;;;;;;;1.95;100.00;101221.16;6245553;23;20074;-91
2022/02/11 06:38:02;;;;;;;13.43;7.15;;;;;;;1.71;100.00;101197.63;6246009;23;20384;-92
2022/02/11 06:40:31;;;;;;;15.90;7.72;;;;;;;1.68;100.00;101205.44;6245469;23;20019;-92
2022/02/11 06:43:00;;;;;;;17.27;7.70;;;;;;;1.83;100.00;101225.50;6247171;23;20371;-93
2022/02/11 06:45:27;;;;;;;13.13;7.43;;;;;;;1.72;100.00;101208.09;6245169;23;20070;-93
2022/02/11 06:47:57;;;;;;;17.10;7.35;;;;;;;1.76;100.00;101217.63;6245876;23;20023;-93
2022/02/11 06:50:25;;;;;;;13.70;7.32;;;;;;;1.90;100.00;101240.28;6247258;23;20012;-93
2022/02/11 06:52:55;;;;;;;14.07;7.38;;;;;;;1.85;100.00;101224.63;6245855;23;20016;-93
2022/02/11 06:55:23;;;;;;;16.63;7.95;;;;;;;1.69;100.00;101202.84;6248710;23;20335;-92
2022/02/11 06:57:51;;;;;;;13.60;6.78;;;;;;;1.92;100.00;101217.66;6223077;23;20020;-93
2022/02/11 07:00:29;;;;;;;17.77;6.85;;;;;;;2.18;100.00;101249.94;6248978;23;20016;-92
2022/02/11 07:04:10;;;;;;;15.93;7.10;;;;;;;2.29;100.00;101271.72;6238806;23;20423;-96
2022/02/11 07:06:37;;;;;;;15.95;6.90;;;;;;;2.17;100.00;101256.03;6248858;23;20074;-91
2022/02/11 07:09:09;;;;;;;14.48;6.10;;;;;;;2.31;99.03;101256.03;6248425;23;20340;-91
2022/02/11 07:11:41;;;;;;;12.50;6.93;;;;;;;2.36;100.00;101275.22;6248302;23;20020;-91
2022/02/11 07:14:11;;;;;;;16.83;6.75;;;;;;;2.41;100.00;101294.38;6247959;23;20039;-91
2022/02/11 07:16:38;;;;;;;13.25;6.38;;;;;;;2.34;98.56;101272.59;6247471;23;20012;-90
2022/02/11 07:22:16;;;;;;;14.48;6.40;;;;;;;2.53;97.95;101299.59;6248198;23;20031;-90
2022/02/11 07:24:43;;;;;;;12.52;6.43;;;;;;;2.20;97.94;101248.19;6247217;23;20020;-92
2022/02/11 07:27:14;;;;;;;;;;;;;;;2.60;96.60;101321.38;6248003;23;20030;-91
2022/02/11 07:29:43;;;;;;;14.88;6.30;;;;;;;2.49;96.98;101297.00;6248899;23;19916;-90
2022/02/11 07:32:12;;;;;;;12.27;6.20;;;;;;;2.33;99.15;101270.84;6247118;23;20012;-91
2022/02/11 07:37:54;;;;;;;16.50;6.40;;;;;;;2.74;97.95;101335.34;6247842;23;20016;-91
2022/02/11 07:40:25;;;;;;;12.70;6.68;;;;;;;2.78;96.83;101340.56;6247131;23;20020;-90
2022/02/11 07:42:53;;;;;;;19.17;6.50;;;;;;;2.76;96.96;101336.22;6247836;23;20020;-91
2022/02/11 07:45:30;;;;;;;13.70;6.80;;;;;;;2.75;96.90;101352.78;6247192;23;20018;-90
2022/02/11 07:52:41;;;;;;;17.00;6.65;;;;;;;2.83;96.00;101358.03;6247342;23;20031;-91
2022/02/11 07:55:13;;;;;;;14.93;6.43;;;;;;;2.66;94.80;101321.41;6248123;23;20039;-93
2022/02/11 07:57:40;;;;;;;12.15;6.72;;;;;;;2.81;94.28;101337.09;6248940;23;20016;-91
2022/02/11 08:00:07;;;;;;;13.23;6.32;;;;;;;3.01;93.65;101371.06;6245935;23;20023;-91
2022/02/11 08:02:42;;;;;;;14.57;5.97;;;;;;;2.80;92.16;101340.59;6242371;23;20012;-92
2022/02/11 08:05:09;;;;;;;12.18;5.65;;;;;;;2.81;91.94;101343.19;6242729;23;20013;-91
2022/02/11 08:07:36;;;;;;;14.93;5.95;;;;;;;2.78;91.27;101329.25;6241975;23;20074;-91
2022/02/11 08:10:06;;;;;;;14.80;6.82;;;;;;;2.85;94.06;101345.78;6246729;23;20048;-91
2022/02/11 08:12:34;;;;;;;11.40;6.20;;;;;;;2.70;93.50;101320.50;6244448;23;20073;-90
2022/02/11 08:15:05;;;;;;;9.45;5.45;;;;;;;3.16;90.68;101368.44;6245197;23;20020;-89
2022/02/11 08:17:32;;;;;;;11.48;5.65;;;;;;;3.35;90.08;101372.78;6245065;23;20099;-90
2022/02/11 08:19:59;;;;;;;12.90;5.90;;;;;;;3.40;88.47;101370.16;6218005;23;20019;-89
2022/02/11 08:22:26;;;;;;;10.25;5.60;;;;;;;3.29;86.94;101345.75;6215507;23;20449;-89
2022/02/11 08:24:53;;;;;;;14.35;5.68;;;;;;;3.68;87.18;101405.00;6244400;23;20344;-89
2022/02/11 08:27:22;;;;;;;10.07;5.47;;;;;;;3.68;86.24;101410.25;6244818;23;20117;-89
2022/02/11 08:29:49;;;;;;;10.80;4.90;;;;;;;3.65;85.52;101400.63;6241381;23;20027;-90
2022/02/11 08:32:19;;;;;;;12.60;6.03;;;;;;;3.99;85.77;101411.00;6241885;23;20016;-89
2022/02/11 08:34:46;;;;;;;11.30;5.30;;;;;;;3.93;84.31;101372.63;6241723;23;20437;-88
2022/02/11 08:37:17;;;;;;;10.13;6.10;;;;;;;4.21;84.04;101415.28;6219275;23;20509;-91
2022/02/11 08:39:43;;;;;;;14.05;5.80;;;;;;;4.38;83.09;101426.56;6244029;23;20027;-93
2022/02/11 08:42:15;;;;;;;13.73;5.13;;;;;;;4.40;81.17;101410.84;6219800;23;20111;-90
2022/02/11 08:44:47;;;;;;;11.52;4.97;;;;;;;4.31;81.16;101403.00;6244866;23;20440;-94
2022/02/11 08:47:15;;;;;;;9.65;5.22;;;;;;;4.44;80.83;101413.41;6245193;22;20031;-92
2022/02/11 08:49:50;;;;;;;10.20;4.75;;;;;;;4.74;80.20;101449.06;6243803;23;20020;-89
2022/02/11 08:52:17;;;;;;;14.88;4.90;;;;;;;4.77;79.33;101437.69;6218134;23;20395;-90
2022/02/11 08:54:57;;;;;;;13.45;4.30;;;;;;;4.62;78.85;101412.44;6233148;23;20024;-91
2022/02/11 08:57:32;;;;;;;12.35;4.57;;;;;;;4.89;78.72;101441.09;6248573;23;20062;-89
2022/02/11 09:00:00;;;;;;;12.70;4.50;;;;;;;4.67;78.22;101396.66;6244154;23;20103;-92
2022/02/11 09:02:37;;;;;;;;;;;;;;;;;;;;;
2022/02/11 09:05:08;;;;;;;9.15;3.80;;;;;;;4.83;78.33;101435.03;6236341;23;20024;-92
2022/02/11 09:07:41;;;;;;;11.15;3.88;;;;;;;4.81;77.47;101413.19;6247111;23;20192;-91
2022/02/11 09:10:12;;;;;;;10.07;4.50;;;;;;;4.91;76.81;101409.59;6245357;23;20024;-90
2022/02/11 09:12:39;;;;;;;9.80;4.28;;;;;;;4.96;77.60;101417.44;6245711;23;20043;-90
2022/02/11 09:15:06;;;;;;;14.57;4.38;;;;;;;5.28;77.42;101473.19;6243489;23;20020;-89
2022/02/11 09:17:39;;;;;;;8.93;4.30;;;;;;;5.32;77.40;101468.78;6244319;23;20027;-91
2022/02/11 09:20:23;;;;;;;11.63;4.20;;;;;;;5.23;76.76;101433.84;6243571;23;20020;-90
2022/02/11 09:23:01;;;;;;;9.93;3.75;;;;;;;5.58;75.20;101482.56;6217941;23;20111;-90
2022/02/11 09:25:33;;;;;;;7.90;3.70;;;;;;;5.48;75.60;101445.00;6239374;23;20023;-90
2022/02/11 09:28:03;;;;;;;12.05;3.50;;;;;;;5.83;74.58;101449.88;6242498;23;20039;-90
2022/02/11 09:30:33;;;;;;;11.60;4.10;;;;;;;6.10;73.32;101476.81;6242335;23;20047;-90
2022/02/11 09:33:02;;;;;;;9.52;3.80;;;;;;;6.03;73.53;101473.38;6213156;23;20456;-91
2022/02/11 09:35:29;;;;;;;14.38;3.92;;;;;;;6.19;73.65;101503.00;6240264;23;20020;-95
2022/02/11 09:38:05;;;;;;;9.05;3.40;;;;;;;6.12;72.61;101483.81;6241450;23;20103;-91
2022/02/11 09:40:39;;;;;;;7.18;2.45;;;;;;;6.42;71.72;101452.75;6240555;23;20020;-92
2022/02/11 09:43:12;;;;;;;11.00;3.05;;;;;;;6.89;69.54;101483.69;6239215;23;20106;-90
2022/02/11 09:45:51;;;;;;;;;;;;;;;;;;;;;
2022/02/11 09:48:23;;;;;;;8.55;2.55;;;;;;;6.76;68.03;101476.84;6244144;23;20099;-91
2022/02/11 09:50:56;;;;;;;6.50;2.33;;;;;;;6.57;69.30;101489.38;6244574;23;20046;-91
2022/02/11 09:53:30;;;;;;;8.27;2.70;;;;;;;6.50;69.98;101527.19;6222377;23;20030;-92
2022/02/11 09:55:58;;;;;;;8.38;2.17;;;;;;;6.26;71.70;101513.44;6248766;23;20024;-90
2022/02/11 09:58:33;;;;;;;4.57;2.20;;;;;;;6.23;72.74;101502.94;6256845;23;20024;-93
2022/02/11 10:01:02;;;;;;;9.43;2.45;;;;;;;6.31;71.37;101497.59;6254573;23;20117;-92
2022/02/11 10:04:14;;;;;;;9.60;2.47;;;;;;;6.32;70.25;101504.59;6250451;23;20365;-89
2022/02/11 10:06:51;;;;;;;5.60;2.17;;;;;;;7.11;69.14;101534.25;6244019;23;20023;-93
2022/02/11 10:09:22;;;;;;;7.22;2.58;;;;;;;7.73;65.35;101515.66;6242093;23;20016;-89
2022/02/11 10:12:03;;;;;;;6.97;2.60;;;;;;;8.46;63.28;101502.03;6242058;23;20027;-90
2022/02/11 10:14:36;;;;;;;5.93;2.28;;;;;;;8.42;58.67;101509.13;6244815;23;20023;-89
2022/02/11 10:17:22;;;;;;;6.38;2.20;;;;;;;8.56;57.69;101512.34;6244689;23;20120;-90
2022/02/11 10:19:51;;;;;;;6.97;2.22;;;;;;;8.75;58.22;101499.63;6242184;23;20016;-90
2022/02/11 10:22:34;;;;;;;7.00;2.20;;;;;;;9.13;57.43;101527.81;6234559;23;20031;-90
2022/02/11 10:25:02;;;;;;;7.60;1.95;;;;;;;8.97;55.81;101522.00;6242492;23;20029;-90
2022/02/11 10:27:33;;;;;;;7.85;1.70;;;;;;;9.03;55.62;101565.94;6218895;23;20016;-90
2022/02/11 10:30:15;;;;;;;8.90;1.90;;;;;;;8.57;57.25;101552.84;6242821;23;20384;-90
2022/02/11 10:32:46;;;;;;;10.77;2.47;;;;;;;8.25;58.75;101587.72;6240168;23;20510;-90
2022/02/11 10:35:16;;;;;;;8.20;2.33;;;;;;;7.55;59.13;101559.94;6242042;23;20024;-90
2022/02/11 10:38:06;;;;;;;6.18;1.77;;;;;;;7.32;60.54;101555.03;6221289;23;20460;-92
2022/02/11 10:40:59;;;;;;;10.00;2.60;;;;;;;7.57;60.87;101597.66;6248236;23;20518;-96
2022/02/11 10:44:05;;;;;;;7.60;1.73;;;;;;;7.24;61.20;101573.56;6244510;23;20499;-90
2022/02/11 10:46:43;;;;;;;9.07;2.47;;;;;;;6.98;61.54;101568.66;6244133;23;20811;-91
2022/02/11 10:49:12;;;;;;;8.77;1.95;;;;;;;7.10;62.18;101601.00;6243887;23;20016;-92
2022/02/11 10:51:44;;;;;;;8.95;2.00;;;;;;;6.98;62.51;101589.75;6241237;23;20028;-90
2022/02/11 10:54:33;;;;;;;9.43;3.03;;;;;;;6.99;63.15;101602.03;6218686;23;20027;-91
2022/02/11 10:57:05;;;;;;;7.50;1.92;;;;;;;6.64;63.92;101562.97;6218296;23;20012;-90
2022/02/11 10:59:37;;;;;;;13.30;2.22;;;;;;;6.72;63.89;101594.47;6243263;23;20024;-92
2022/02/11 11:02:06;;;;;;;7.57;2.58;;;;;;;6.97;65.43;101648.56;6242153;23;20022;-91
2022/02/11 11:04:34;;;;;;;9.48;2.22;;;;;;;6.55;67.38;101625.38;6242062;23;20343;-90
2022/02/11 11:07:18;;;;;;;10.93;2.28;;;;;;;6.22;68.40;101590.63;6216417;23;20020;-90
2022/02/11 11:10:12;;;;;;;6.80;1.70;;;;;;;6.35;69.01;101649.25;6240866;23;20024;-89
2022/02/11 11:12:54;;;;;;;11.40;2.22;;;;;;;6.24;68.53;101627.44;6242294;23;20016;-90
2022/02/11 11:15:27;;;;;;;6.00;1.98;;;;;;;6.46;68.52;101641.25;6242075;23;20027;-90
2022/02/11 11:17:55;;;;;;;5.47;2.23;;;;;;;6.34;66.78;101624.69;6247912;23;20063;-91
2022/02/11 11:20:26;;;;;;;6.25;2.10;;;;;;;6.18;66.75;101606.44;6245074;23;20542;-90
2022/02/11 11:23:27;;;;;;;6.95;1.70;;;;;;;6.04;66.61;101601.34;6241508;23;20070;-89
2022/02/11 11:25:55;;;;;;;;;;;;;;;6.36;66.89;101658.03;6246147;23;20032;-89
2022/02/11 11:28:41;;;;;;;8.32;2.08;;;;;;;5.91;66.94;101595.31;6244854;23;19915;-90
2022/02/11 11:31:15;;;;;;;6.03;2.40;;;;;;;6.19;67.15;101666.06;6225121;23;20024;-88
2022/02/11 11:34:17;;;;;;;8.00;1.98;;;;;;;6.17;66.53;101638.91;6233462;23;20456;-94
2022/02/11 11:36:53;;;;;;;9.38;2.22;;;;;;;6.36;66.43;101648.38;6255723;23;20077;-90
2022/02/11 11:39:22;;;;;;;5.85;2.20;;;;;;;6.77;65.42;101673.41;6253279;23;20331;-89
2022/02/11 11:42:14;;;;;;;8.15;2.40;;;;;;;6.94;63.78;101674.94;6242296;23;20024;-90
2022/02/11 11:45:00;;;;;;;9.70;2.05;;;;;;;7.09;63.26;101665.09;6241994;23;20082;-91
2022/02/11 11:47:45;;;;;;;11.02;2.20;;;;;;;7.10;61.68;101637.88;6244035;23;20032;-96
2022/02/11 11:50:19;;;;;;;4.72;1.67;;;;;;;7.25;60.65;101658.75;6239918;23;20019;-89
2022/02/11 11:52:47;;;;;;;8.43;1.80;;;;;;;7.36;59.04;101641.91;6239574;23;20039;-90
2022/02/11 11:55:21;;;;;;;6.47;1.98;;;;;;;7.47;58.43;101661.97;6240340;23;20016;-88
2022/02/11 11:57:53;;;;;;;7.13;1.83;;;;;;;7.60;58.57;101669.69;6242381;23;20022;-90
2022/02/11 12:00:39;;;;;;;6.72;1.85;;;;;;;7.45;58.13;101634.75;6242889;23;20566;-91
2022/02/11 12:03:09;;;;;;;8.05;1.80;;;;;;;7.61;57.50;101652.09;6214987;23;20023;-90
2022/02/11 12:05:42;;;;;;;7.55;1.70;;;;;;;7.79;57.40;101696.66;6215169;23;20016;-91
2022/02/11 12:08:15;;;;;;;9.02;1.88;;;;;;;7.46;56.60;101637.38;6241518;23;20444;-91
2022/02/11 12:10:46;;;;;;;10.13;1.85;;;;;;;7.62;55.65;101686.34;6239449;23;20016;-90
2022/02/11 12:13:17;;;;;;;8.85;1.70;;;;;;;7.66;54.51;101689.81;6216642;23;20035;-90
2022/02/11 12:15:59;;;;;;;10.07;1.77;;;;;;;7.75;54.79;101711.63;6242577;23;20069;-91
2022/02/11 12:18:28;;;;;;;8.07;1.95;;;;;;;7.71;54.71;101688.00;6215575;23;20012;-88
2022/02/11 12:20:56;;;;;;;7.32;1.55;;;;;;;7.54;52.08;101647.81;6216171;23;20009;-90
2022/02/11 12:28:58;;;;;;;5.88;1.98;;;;;;;8.38;52.61;101715.97;6242695;23;20021;-89
2022/02/11 12:31:25;;;;;;;7.13;1.90;;;;;;;8.44;51.52;101715.88;6243153;23;20020;-89
2022/02/11 12:34:12;;;;;;;6.80;1.98;;;;;;;8.29;51.53;101711.69;6240117;23;20016;-91
2022/02/11 12:36:45;;;;;;;9.35;1.95;;;;;;;8.23;52.57;101738.16;6238431;23;20020;-90
2022/02/11 12:39:39;;;;;;;6.38;1.90;;;;;;;7.86;52.87;101694.81;6240398;23;20043;-93
2022/02/11 12:42:09;;;;;;;6.63;2.15;;;;;;;8.02;53.72;101728.84;6240728;23;20031;-90
2022/02/11 12:45:00;;;;;;;11.73;2.33;;;;;;;7.57;54.75;101695.19;6238237;23;20027;-92
2022/02/11 12:47:34;;;;;;;7.60;2.03;;;;;;;7.56;55.19;101712.78;6235430;23;20020;-91
2022/02/11 12:50:31;;;;;;;7.97;2.17;;;;;;;8.04;54.15;101734.94;6238192;23;20020;-94
2022/02/11 12:53:02;;;;;;;14.48;2.25;;;;;;;8.52;52.60;101694.59;6238988;23;20089;-91
2022/02/11 12:55:36;;;;;;;8.45;1.83;;;;;;;9.30;51.40;101738.88;6243370;23;20028;-89
2022/02/11 12:58:25;;;;;;;9.18;1.95;;;;;;;9.21;49.38;101692.38;6217809;23;20024;-93
2022/02/11 13:00:55;;;;;;;10.88;2.30;;;;;;;9.45;48.67;101676.00;6237419;23;20039;-92
2022/02/11 13:03:31;;;;;;;9.77;2.28;;;;;;;10.00;48.61;101738.25;6238162;23;20016;-94
2022/02/11 13:06:17;;;;;;;8.20;1.83;;;;;;;9.84;46.69;101668.06;6243888;23;20082;-96
2022/02/11 13:08:54;;;;;;;;;;;;;;;;;;;;;
2022/02/11 13:11:26;;;;;;;8.50;1.98;;;;;;;9.87;46.21;101701.53;6245386;23;20023;-93
2022/02/11 13:14:08;;;;;;;8.60;2.08;;;;;;;9.49;47.63;101706.75;6242268;23;20075;-95
2022/02/11 13:16:38;;;;;;;7.93;1.95;;;;;;;9.20;49.00;101676.56;6244657;23;20036;-91
2022/02/11 13:19:25;;;;;;;;;;;;;;;;;;;;;
2022/02/11 13:22:14;;;;;;;6.32;1.77;;;;;;;9.02;50.13;101742.09;6246486;23;20020;-95
2022/02/11 13:25:05;;;;;;;6.82;1.88;;;;;;;9.78;48.77;101723.75;6246773;23;20103;-94
2022/02/11 13:27:50;;;;;;;10.05;2.35;;;;;;;9.96;46.61;101717.16;6244967;23;20016;-91
2022/02/11 13:30:28;;;;;;;11.93;2.50;;;;;;;10.03;45.62;101738.19;6248421;23;20043;-90
2022/02/11 13:33:00;;;;;;;6.95;1.60;;;;;;;10.14;45.48;101744.06;6251204;23;20135;-92
2022/02/11 13:35:27;;;;;;;6.25;1.48;;;;;;;10.14;45.57;101703.50;6246893;23;20460;-90
2022/02/11 13:37:59;;;;;;;7.32;2.05;;;;;;;10.71;44.88;101745.34;6246941;23;20026;-93
2022/02/11 13:40:30;;;;;;;9.27;1.90;;;;;;;10.76;45.45;101743.44;6244835;23;20042;-91
2022/02/11 13:43:22;;;;;;;11.13;2.20;;;;;;;10.87;43.94;101755.50;6245412;23;20109;-91
2022/02/11 13:45:50;;;;;;;11.18;2.05;;;;;;;10.81;44.39;101778.66;6217135;23;20023;-90
2022/02/11 13:48:21;;;;;;;6.35;1.70;;;;;;;10.79;43.89;101757.50;6245517;23;20332;-92
2022/02/11 13:50:58;;;;;;;8.52;1.90;;;;;;;10.89;43.53;101792.56;6246796;23;20524;-93
2022/02/11 13:53:36;;;;;;;12.38;1.88;;;;;;;10.49;43.53;101805.94;6244744;23;20043;-92
2022/02/11 13:56:12;;;;;;;6.63;1.80;;;;;;;9.58;43.29;101765.66;6220116;23;20038;-91
2022/02/11 13:59:03;;;;;;;9.32;1.88;;;;;;;9.18;44.36;101811.38;6246149;23;20802;-93
2022/02/11 14:01:46;;;;;;;7.60;1.70;;;;;;;8.56;46.29;101799.25;6239532;23;20054;-90
2022/02/11 14:04:21;;;;;;;7.95;1.80;;;;;;;8.32;48.32;101796.13;6249383;23;20104;-90
2022/02/11 14:06:58;;;;;;;8.20;1.85;;;;;;;8.16;49.16;101804.28;6250927;23;20023;-91
2022/02/11 14:09:39;;;;;;;8.27;1.83;;;;;;;7.76;49.57;101752.06;6252789;23;20026;-93
2022/02/11 14:12:18;;;;;;;5.15;1.75;;;;;;;8.17;49.62;101806.88;6248409;23;20020;-91
2022/02/11 14:15:05;;;;;;;10.82;1.77;;;;;;;7.99;49.95;101781.63;6244745;23;20024;-91
2022/02/11 14:17:40;;;;;;;10.25;2.30;;;;;;;8.05;51.24;101789.44;6246430;23;20074;-92
2022/02/11 14:20:07;;;;;;;10.38;2.20;;;;;;;7.88;51.11;101772.97;6234102;23;20056;-92
2022/02/11 14:22:39;;;;;;;9.80;2.10;;;;;;;7.92;49.56;101790.50;6250200;23;20020;-92
2022/02/11 14:25:09;;;;;;;10.98;1.88;;;;;;;7.68;49.47;101751.31;6221675;23;20023;-91
2022/02/11 14:27:36;;;;;;;8.98;1.98;;;;;;;7.80;49.51;101764.31;6250575;23;20343;-91
2022/02/11 14:30:04;;;;;;;6.30;1.67;;;;;;;7.89;49.00;101782.63;6247376;23;20086;-91
2022/02/11 14:32:33;;;;;;;12.50;1.80;;;;;;;7.81;48.82;101807.38;6244384;23;20024;-90
2022/02/11 14:35:15;;;;;;;;;;;;;;;7.87;49.18;101817.88;6245779;23;20031;-91
2022/02/11 14:37:44;;;;;;;8.45;2.00;;;;;;;7.37;49.63;101770.16;6250947;23;19935;-92
2022/02/11 14:40:12;;;;;;;7.43;1.90;;;;;;;7.48;50.11;101793.72;6253721;23;20251;-91
2022/02/11 14:42:44;;;;;;;6.25;1.70;;;;;;;7.35;50.04;101774.56;6251994;23;20020;-90
2022/02/11 14:45:14;;;;;;;6.95;1.75;;;;;;;7.52;50.67;101808.63;6243616;23;20020;-94
2022/02/11 14:47:47;;;;;;;8.13;1.88;;;;;;;7.42;50.79;101792.91;6245354;23;20084;-92
2022/02/11 14:50:15;;;;;;;10.13;2.13;;;;;;;7.28;52.04;101780.78;6244956;23;20012;-95
2022/02/11 14:52:47;;;;;;;11.70;2.72;;;;;;;7.69;53.85;101840.94;6244865;23;20501;-93
2022/02/11 14:55:16;;;;;;;10.02;2.05;;;;;;;7.54;52.09;101804.22;6244181;23;20339;-92
2022/02/11 14:57:43;;;;;;;10.10;1.83;;;;;;;7.82;52.08;101849.56;6246798;23;20012;-92
2022/02/11 15:00:18;;;;;;;10.55;1.85;;;;;;;7.82;50.87;101840.78;6246895;23;20023;-93
2022/02/11 15:02:52;;;;;;;8.23;1.65;;;;;;;7.41;50.10;101786.78;6246393;23;20016;-92
2022/02/11 15:05:22;;;;;;;10.10;2.22;;;;;;;7.33;47.92;101786.00;6251108;23;20055;-95
2022/02/11 15:08:07;;;;;;;8.23;2.05;;;;;;;7.38;47.27;101806.16;6247504;23;20027;-92
2022/02/11 15:10:40;;;;;;;8.38;1.70;;;;;;;7.22;47.60;101817.75;6251506;23;20482;-92
2022/02/11 15:13:22;;;;;;;10.35;2.22;;;;;;;7.10;48.22;101803.81;6252807;23;20068;-93
2022/02/11 15:16:21;;;;;;;8.02;1.55;;;;;;;6.97;46.60;101803.06;6257349;23;20028;-94
2022/02/11 15:19:13;;;;;;;5.43;1.40;;;;;;;7.17;45.65;101843.25;6252446;23;20625;-94
2022/02/11 15:27:08;;;;;;;;;;;;;;;;;;;;;
2022/02/11 15:31:04;;;;;;;;;;;;;;;;;;;;;
2022/02/11 15:34:12;;;;;;;;;;;;;;;;;;;;;
2022/02/11 15:41:10;;;;;;;;;;;;;;;;;;;;;
2022/02/11 15:44:05;;;;;;;7.55;1.70;;;;;;;7.04;46.19;101897.84;6244958;23;20804;-95
2022/02/11 15:47:16;;;;;;;6.45;1.30;;;;;;;7.00;45.90;101897.84;6242072;23;20123;-94
2022/02/11 15:50:00;;;;;;;8.25;1.45;;;;;;;6.74;46.77;101884.03;6246872;23;20020;-94
2022/02/11 15:53:02;;;;;;;9.65;1.60;;;;;;;6.62;45.57;101874.44;6248811;23;20432;-94
2022/02/11 15:55:46;;;;;;;10.35;1.70;;;;;;;6.68;45.61;101893.72;6214589;23;20024;-95
2022/02/11 15:58:22;;;;;;;9.02;1.42;;;;;;;6.63;46.20;101889.34;6243961;23;20044;-95
2022/02/11 16:01:18;;;;;;;10.25;1.95;;;;;;;6.30;46.71;101865.00;6247531;23;20016;-95
2022/02/11 16:04:21;;;;;;;8.50;1.75;;;;;;;6.19;47.26;101847.53;6244012;23;20024;-95
2022/02/11 16:07:56;;;;;;;;;;;;;;;;;;;;;
2022/02/11 16:10:39;;;;;;;7.97;1.70;;;;;;;6.10;48.01;101873.91;6184634;23;20109;-95
2022/02/11 16:13:25;;;;;;;9.02;1.73;;;;;;;6.31;47.87;101923.75;6244619;23;20024;-94
2022/02/11 16:16:39;;;;;;;;;;;;;;;;;;;;;
2022/02/11 16:19:52;;;;;;;7.00;1.98;;;;;;;6.16;48.49;101929.97;6248012;23;20072;-96
2022/02/11 16:23:44;;;;;;;;;;;;;;;;;;;;;
2022/02/11 16:27:19;;;;;;;;;;;;;;;;;;;;;
2022/02/11 16:30:45;;;;;;;8.82;2.53;;;;;;;5.80;48.75;101902.06;6099445;23;20032;-96
2022/02/11 16:34:17;;;;;;;;;;;;;;;;;;;;;
2022/02/11 16:46:50;;;;;;;;;;;;;;;;;;;;;
2022/02/11 16:50:38;;;;;;;7.95;2.20;;;;;;;5.49;50.08;101976.59;6104807;23;20027;-96
2022/02/11 17:00:50;;;;;;;8.70;2.00;;;;;;;5.04;52.21;101965.19;6010642;23;20104;-89
2022/02/11 17:04:02;;;;;;;10.23;1.83;;;;;;;5.11;52.20;102000.22;6103673;23;20029;-93
2022/02/11 17:06:47;;;;;;;10.43;1.83;;;;;;;4.90;51.67;101970.41;6115290;23;20030;-90
2022/02/11 17:09:54;;;;;;;6.60;1.67;;;;;;;4.74;52.49;101952.03;6256022;23;20008;-93
2022/02/11 17:12:38;;;;;;;8.70;2.13;;;;;;;4.97;53.37;102002.81;6236969;23;20027;-89
2022/02/11 17:15:30;;;;;;;9.15;2.22;;;;;;;5.00;52.70;102017.72;6254948;23;20043;-92
2022/02/11 17:18:09;;;;;;;10.38;2.60;;;;;;;4.64;53.48;101955.50;6256098;23;20031;-90